NCAR-RAP Real-Time Weather Data

Output produced by METARs form (06 May 2021  16:39 UTC)
found at http://weather.rap.ucar.edu/surface/
 
KTAD 061554Z AUTO 10SM CLR 16/01 A3037 RMK AO2 SLP237 T01560006
KTAD 061454Z AUTO VRB03KT 10SM CLR 13/00 A3038 RMK AO2 SLP244 T01280000 50003
KTAD 061354Z AUTO 26006KT 10SM CLR 10/01 A3039 RMK AO2 SLP249 T01000011
KTAD 061254Z AUTO 25010KT 10SM CLR 06/00 A3038 RMK AO2 SLP251 T00560000
KTAD 061154Z AUTO 25012KT 10SM CLR 04/00 A3037 RMK AO2 SLP241 T00440000 10061 20039 53003
KTAD 061054Z AUTO 24011KT 10SM CLR 04/00 A3036 RMK AO2 SLP236 T00440000
KTAD 060954Z AUTO 25011KT 10SM CLR 05/01 A3035 RMK AO2 SLP230 T00500006
KTAD 060854Z AUTO 25011KT 10SM CLR 06/01 A3036 RMK AO2 SLP232 T00560006 58003
KTAD 060754Z AUTO 25009KT 10SM CLR 04/01 A3037 RMK AO2 SLP238 T00440006
KTAD 060654Z AUTO 25004KT 10SM CLR 06/01 A3038 RMK AO2 SLP243 T00560011 402170050
KTAD 060554Z AUTO 26008KT 10SM CLR 06/01 A3037 RMK AO2 SLP245 T00560011 10200 20056 51015
KTAD 060454Z AUTO 02005KT 10SM CLR 09/02 A3036 RMK AO2 SLP238 T00890022
KTAD 060354Z AUTO 02005KT 10SM CLR 10/02 A3035 RMK AO2 SLP237 T01000017
KTAD 060254Z AUTO 04006KT 10SM OVC055 12/02 A3032 RMK AO2 SLP223 T01170017 53039